sensor_id;sensor_type;location;lat;lon;timestamp;P1;durP1;ratioP1;P2;durP2;ratioP2
28828;SDS011;15966;51.540;11.870;2023-05-10T00:01:15;5.50;;;4.70;;
28828;SDS011;15966;51.540;11.870;2023-05-10T00:03:41;4.28;;;3.95;;
28828;SDS011;15966;51.540;11.870;2023-05-10T00:06:07;4.57;;;4.18;;
28828;SDS011;15966;51.540;11.870;2023-05-10T00:08:33;6.65;;;4.20;;
28828;SDS011;15966;51.540;11.870;2023-05-10T00:10:59;6.95;;;4.93;;
28828;SDS011;15966;51.540;11.870;2023-05-10T00:13:25;8.15;;;5.47;;
28828;SDS011;15966;51.540;11.870;2023-05-10T00:15:51;4.47;;;4.07;;
28828;SDS011;15966;51.540;11.870;2023-05-10T00:18:18;5.47;;;4.97;;
28828;SDS011;15966;51.540;11.870;2023-05-10T00:20:44;6.25;;;5.05;;
28828;SDS011;15966;51.540;11.870;2023-05-10T00:23:11;6.38;;;4.88;;
28828;SDS011;15966;51.540;11.870;2023-05-10T00:25:37;5.68;;;4.80;;
28828;SDS011;15966;51.540;11.870;2023-05-10T00:28:03;4.38;;;3.97;;
28828;SDS011;15966;51.540;11.870;2023-05-10T00:30:29;11.02;;;4.88;;
28828;SDS011;15966;51.540;11.870;2023-05-10T00:32:55;5.50;;;5.00;;
28828;SDS011;15966;51.540;11.870;2023-05-10T00:35:21;6.80;;;4.80;;
28828;SDS011;15966;51.540;11.870;2023-05-10T00:37:47;4.95;;;4.38;;
28828;SDS011;15966;51.540;11.870;2023-05-10T00:40:13;7.43;;;5.22;;
28828;SDS011;15966;51.540;11.870;2023-05-10T00:42:40;5.38;;;4.85;;
28828;SDS011;15966;51.540;11.870;2023-05-10T00:45:06;6.15;;;5.20;;
28828;SDS011;15966;51.540;11.870;2023-05-10T00:47:32;6.70;;;4.93;;
28828;SDS011;15966;51.540;11.870;2023-05-10T00:49:59;9.05;;;5.15;;
28828;SDS011;15966;51.540;11.870;2023-05-10T00:52:28;6.45;;;4.97;;
28828;SDS011;15966;51.540;11.870;2023-05-10T00:54:55;5.15;;;4.57;;
28828;SDS011;15966;51.540;11.870;2023-05-10T00:57:22;6.32;;;5.47;;
28828;SDS011;15966;51.540;11.870;2023-05-10T00:59:48;5.35;;;4.85;;
28828;SDS011;15966;51.540;11.870;2023-05-10T01:02:14;6.28;;;5.68;;
28828;SDS011;15966;51.540;11.870;2023-05-10T01:04:40;5.10;;;4.32;;
28828;SDS011;15966;51.540;11.870;2023-05-10T01:07:06;4.50;;;3.95;;
28828;SDS011;15966;51.540;11.870;2023-05-10T01:09:32;8.27;;;4.95;;
28828;SDS011;15966;51.540;11.870;2023-05-10T01:11:59;5.72;;;4.53;;
28828;SDS011;15966;51.540;11.870;2023-05-10T01:14:26;5.25;;;4.75;;
28828;SDS011;15966;51.540;11.870;2023-05-10T01:16:53;5.38;;;4.82;;
28828;SDS011;15966;51.540;11.870;2023-05-10T01:19:22;5.35;;;4.80;;
28828;SDS011;15966;51.540;11.870;2023-05-10T01:21:58;5.70;;;5.13;;
28828;SDS011;15966;51.540;11.870;2023-05-10T01:32:54;8.35;;;5.43;;
28828;SDS011;15966;51.540;11.870;2023-05-10T01:35:30;7.88;;;5.63;;
28828;SDS011;15966;51.540;11.870;2023-05-10T01:40:50;4.78;;;4.25;;
28828;SDS011;15966;51.540;11.870;2023-05-10T01:43:26;5.57;;;4.88;;
28828;SDS011;15966;51.540;11.870;2023-05-10T01:48:25;5.78;;;5.05;;
28828;SDS011;15966;51.540;11.870;2023-05-10T01:50:52;4.93;;;4.30;;
28828;SDS011;15966;51.540;11.870;2023-05-10T01:53:19;8.18;;;5.57;;
28828;SDS011;15966;51.540;11.870;2023-05-10T01:55:46;9.40;;;6.13;;
28828;SDS011;15966;51.540;11.870;2023-05-10T01:58:21;6.03;;;5.00;;
28828;SDS011;15966;51.540;11.870;2023-05-10T02:00:50;6.13;;;4.82;;
28828;SDS011;15966;51.540;11.870;2023-05-10T02:03:17;5.77;;;5.17;;
28828;SDS011;15966;51.540;11.870;2023-05-10T02:05:46;6.18;;;5.32;;
28828;SDS011;15966;51.540;11.870;2023-05-10T02:08:13;5.68;;;5.07;;
28828;SDS011;15966;51.540;11.870;2023-05-10T02:10:42;5.88;;;5.28;;
28828;SDS011;15966;51.540;11.870;2023-05-10T02:13:09;7.40;;;4.97;;
28828;SDS011;15966;51.540;11.870;2023-05-10T02:15:36;6.25;;;4.93;;
28828;SDS011;15966;51.540;11.870;2023-05-10T02:18:02;5.07;;;4.45;;
28828;SDS011;15966;51.540;11.870;2023-05-10T02:20:30;6.30;;;5.18;;
28828;SDS011;15966;51.540;11.870;2023-05-10T02:22:57;6.15;;;4.88;;
28828;SDS011;15966;51.540;11.870;2023-05-10T02:25:23;5.00;;;4.55;;
28828;SDS011;15966;51.540;11.870;2023-05-10T02:27:50;7.67;;;4.77;;
28828;SDS011;15966;51.540;11.870;2023-05-10T02:30:18;7.82;;;5.15;;
28828;SDS011;15966;51.540;11.870;2023-05-10T02:32:44;5.30;;;4.80;;
28828;SDS011;15966;51.540;11.870;2023-05-10T02:35:11;6.13;;;5.18;;
28828;SDS011;15966;51.540;11.870;2023-05-10T02:37:37;4.95;;;4.55;;
28828;SDS011;15966;51.540;11.870;2023-05-10T02:40:04;8.43;;;6.13;;
28828;SDS011;15966;51.540;11.870;2023-05-10T02:42:32;6.90;;;5.00;;
28828;SDS011;15966;51.540;11.870;2023-05-10T02:45:01;6.45;;;5.85;;
28828;SDS011;15966;51.540;11.870;2023-05-10T02:47:29;7.22;;;5.38;;
28828;SDS011;15966;51.540;11.870;2023-05-10T02:49:56;5.72;;;5.15;;
28828;SDS011;15966;51.540;11.870;2023-05-10T02:52:26;5.82;;;4.75;;
28828;SDS011;15966;51.540;11.870;2023-05-10T02:54:54;7.88;;;5.35;;
28828;SDS011;15966;51.540;11.870;2023-05-10T02:57:22;5.30;;;4.80;;
28828;SDS011;15966;51.540;11.870;2023-05-10T02:59:51;7.43;;;5.63;;
28828;SDS011;15966;51.540;11.870;2023-05-10T03:02:17;5.75;;;5.13;;
28828;SDS011;15966;51.540;11.870;2023-05-10T03:04:44;5.05;;;4.63;;
28828;SDS011;15966;51.540;11.870;2023-05-10T03:07:10;5.45;;;4.85;;
28828;SDS011;15966;51.540;11.870;2023-05-10T03:09:36;5.80;;;5.20;;
28828;SDS011;15966;51.540;11.870;2023-05-10T03:19:55;5.30;;;4.75;;
28828;SDS011;15966;51.540;11.870;2023-05-10T03:22:30;5.60;;;4.97;;
28828;SDS011;15966;51.540;11.870;2023-05-10T03:25:05;5.32;;;4.82;;
28828;SDS011;15966;51.540;11.870;2023-05-10T03:27:33;7.88;;;4.78;;
28828;SDS011;15966;51.540;11.870;2023-05-10T03:30:01;6.00;;;5.45;;
28828;SDS011;15966;51.540;11.870;2023-05-10T03:32:28;5.43;;;4.93;;
28828;SDS011;15966;51.540;11.870;2023-05-10T03:34:56;5.45;;;4.95;;
28828;SDS011;15966;51.540;11.870;2023-05-10T03:37:22;6.10;;;5.20;;
28828;SDS011;15966;51.540;11.870;2023-05-10T03:39:49;5.63;;;5.00;;
28828;SDS011;15966;51.540;11.870;2023-05-10T03:42:15;7.32;;;6.00;;
28828;SDS011;15966;51.540;11.870;2023-05-10T03:44:42;6.28;;;5.53;;
28828;SDS011;15966;51.540;11.870;2023-05-10T03:47:08;9.52;;;6.13;;
28828;SDS011;15966;51.540;11.870;2023-05-10T03:49:34;6.45;;;5.20;;
28828;SDS011;15966;51.540;11.870;2023-05-10T03:52:00;5.68;;;5.07;;
28828;SDS011;15966;51.540;11.870;2023-05-10T03:54:26;6.40;;;5.85;;
28828;SDS011;15966;51.540;11.870;2023-05-10T03:56:53;6.22;;;4.38;;
28828;SDS011;15966;51.540;11.870;2023-05-10T03:59:19;5.25;;;4.78;;
28828;SDS011;15966;51.540;11.870;2023-05-10T04:01:45;5.90;;;5.28;;
28828;SDS011;15966;51.540;11.870;2023-05-10T04:04:11;5.95;;;5.03;;
28828;SDS011;15966;51.540;11.870;2023-05-10T04:06:37;5.38;;;4.88;;
28828;SDS011;15966;51.540;11.870;2023-05-10T04:09:03;6.28;;;5.68;;
28828;SDS011;15966;51.540;11.870;2023-05-10T04:11:29;8.38;;;5.35;;
28828;SDS011;15966;51.540;11.870;2023-05-10T04:13:55;5.45;;;4.88;;
28828;SDS011;15966;51.540;11.870;2023-05-10T04:16:22;6.68;;;5.18;;
28828;SDS011;15966;51.540;11.870;2023-05-10T04:18:48;8.93;;;5.80;;
28828;SDS011;15966;51.540;11.870;2023-05-10T04:21:14;6.25;;;5.65;;
28828;SDS011;15966;51.540;11.870;2023-05-10T04:23:40;6.97;;;5.20;;
28828;SDS011;15966;51.540;11.870;2023-05-10T04:26:06;7.50;;;4.75;;
28828;SDS011;15966;51.540;11.870;2023-05-10T04:28:32;6.28;;;4.70;;
28828;SDS011;15966;51.540;11.870;2023-05-10T04:31:02;5.75;;;5.20;;
28828;SDS011;15966;51.540;11.870;2023-05-10T04:33:29;5.68;;;4.93;;
28828;SDS011;15966;51.540;11.870;2023-05-10T04:35:55;6.35;;;5.68;;
28828;SDS011;15966;51.540;11.870;2023-05-10T04:38:21;5.60;;;5.10;;
28828;SDS011;15966;51.540;11.870;2023-05-10T04:40:47;6.07;;;5.03;;
28828;SDS011;15966;51.540;11.870;2023-05-10T04:43:13;7.40;;;5.82;;
28828;SDS011;15966;51.540;11.870;2023-05-10T04:45:39;8.10;;;6.07;;
28828;SDS011;15966;51.540;11.870;2023-05-10T04:48:05;5.05;;;4.13;;
28828;SDS011;15966;51.540;11.870;2023-05-10T04:50:32;7.75;;;5.07;;
28828;SDS011;15966;51.540;11.870;2023-05-10T04:52:58;5.03;;;4.53;;
28828;SDS011;15966;51.540;11.870;2023-05-10T04:55:24;5.38;;;4.88;;
28828;SDS011;15966;51.540;11.870;2023-05-10T04:57:51;9.00;;;5.28;;
28828;SDS011;15966;51.540;11.870;2023-05-10T05:00:18;5.38;;;4.53;;
28828;SDS011;15966;51.540;11.870;2023-05-10T05:02:44;5.63;;;5.10;;
28828;SDS011;15966;51.540;11.870;2023-05-10T05:05:11;6.03;;;4.93;;
28828;SDS011;15966;51.540;11.870;2023-05-10T05:07:37;5.20;;;4.70;;
28828;SDS011;15966;51.540;11.870;2023-05-10T05:10:07;8.10;;;5.25;;
28828;SDS011;15966;51.540;11.870;2023-05-10T05:12:34;8.43;;;5.15;;
28828;SDS011;15966;51.540;11.870;2023-05-10T05:15:00;5.22;;;4.72;;
28828;SDS011;15966;51.540;11.870;2023-05-10T05:17:27;6.18;;;4.97;;
28828;SDS011;15966;51.540;11.870;2023-05-10T05:19:54;7.05;;;5.25;;
28828;SDS011;15966;51.540;11.870;2023-05-10T05:22:21;6.80;;;6.05;;
28828;SDS011;15966;51.540;11.870;2023-05-10T05:24:52;5.30;;;4.63;;
28828;SDS011;15966;51.540;11.870;2023-05-10T05:27:19;13.40;;;5.70;;
28828;SDS011;15966;51.540;11.870;2023-05-10T05:29:48;5.68;;;4.82;;
28828;SDS011;15966;51.540;11.870;2023-05-10T05:32:15;7.07;;;5.03;;
28828;SDS011;15966;51.540;11.870;2023-05-10T05:34:41;7.10;;;5.93;;
28828;SDS011;15966;51.540;11.870;2023-05-10T05:37:12;7.65;;;5.15;;
28828;SDS011;15966;51.540;11.870;2023-05-10T05:39:41;7.55;;;5.07;;
28828;SDS011;15966;51.540;11.870;2023-05-10T05:42:11;5.45;;;4.57;;
28828;SDS011;15966;51.540;11.870;2023-05-10T05:44:38;9.70;;;4.85;;
28828;SDS011;15966;51.540;11.870;2023-05-10T05:47:04;5.20;;;4.15;;
28828;SDS011;15966;51.540;11.870;2023-05-10T05:49:31;6.82;;;4.20;;
28828;SDS011;15966;51.540;11.870;2023-05-10T05:52:01;6.50;;;4.68;;
28828;SDS011;15966;51.540;11.870;2023-05-10T05:54:28;6.95;;;4.75;;
28828;SDS011;15966;51.540;11.870;2023-05-10T05:56:59;6.20;;;4.07;;
28828;SDS011;15966;51.540;11.870;2023-05-10T05:59:25;5.50;;;3.92;;
28828;SDS011;15966;51.540;11.870;2023-05-10T06:01:51;4.88;;;4.38;;
28828;SDS011;15966;51.540;11.870;2023-05-10T06:04:18;6.88;;;3.85;;
28828;SDS011;15966;51.540;11.870;2023-05-10T06:06:44;8.35;;;4.90;;
28828;SDS011;15966;51.540;11.870;2023-05-10T06:09:10;3.40;;;3.10;;
28828;SDS011;15966;51.540;11.870;2023-05-10T06:11:36;3.78;;;3.47;;
28828;SDS011;15966;51.540;11.870;2023-05-10T06:14:03;4.13;;;3.72;;
28828;SDS011;15966;51.540;11.870;2023-05-10T06:16:31;5.35;;;4.15;;
28828;SDS011;15966;51.540;11.870;2023-05-10T06:18:57;8.55;;;4.30;;
28828;SDS011;15966;51.540;11.870;2023-05-10T06:21:23;5.03;;;3.58;;
28828;SDS011;15966;51.540;11.870;2023-05-10T06:23:50;5.05;;;4.13;;
28828;SDS011;15966;51.540;11.870;2023-05-10T06:26:16;4.85;;;3.78;;
28828;SDS011;15966;51.540;11.870;2023-05-10T06:28:42;14.15;;;4.60;;
28828;SDS011;15966;51.540;11.870;2023-05-10T06:31:08;5.22;;;3.97;;
28828;SDS011;15966;51.540;11.870;2023-05-10T06:33:36;5.72;;;4.55;;
28828;SDS011;15966;51.540;11.870;2023-05-10T06:36:02;8.55;;;4.85;;
28828;SDS011;15966;51.540;11.870;2023-05-10T06:38:28;4.25;;;3.85;;
28828;SDS011;15966;51.540;11.870;2023-05-10T06:40:54;6.25;;;4.40;;
28828;SDS011;15966;51.540;11.870;2023-05-10T06:43:20;4.47;;;4.07;;
28828;SDS011;15966;51.540;11.870;2023-05-10T06:45:50;4.65;;;4.15;;
28828;SDS011;15966;51.540;11.870;2023-05-10T06:48:16;4.95;;;4.47;;
28828;SDS011;15966;51.540;11.870;2023-05-10T06:50:42;5.85;;;4.03;;
28828;SDS011;15966;51.540;11.870;2023-05-10T06:53:09;5.57;;;3.85;;
28828;SDS011;15966;51.540;11.870;2023-05-10T06:55:35;4.70;;;4.28;;
28828;SDS011;15966;51.540;11.870;2023-05-10T06:58:01;6.07;;;4.18;;
28828;SDS011;15966;51.540;11.870;2023-05-10T07:00:27;7.90;;;4.93;;
28828;SDS011;15966;51.540;11.870;2023-05-10T07:02:53;6.43;;;3.80;;
28828;SDS011;15966;51.540;11.870;2023-05-10T07:05:19;5.05;;;4.10;;
28828;SDS011;15966;51.540;11.870;2023-05-10T07:07:46;10.60;;;5.30;;
28828;SDS011;15966;51.540;11.870;2023-05-10T07:10:12;7.85;;;4.38;;
28828;SDS011;15966;51.540;11.870;2023-05-10T07:12:38;5.35;;;4.70;;
28828;SDS011;15966;51.540;11.870;2023-05-10T07:15:05;6.50;;;4.28;;
28828;SDS011;15966;51.540;11.870;2023-05-10T07:17:31;5.13;;;4.63;;
28828;SDS011;15966;51.540;11.870;2023-05-10T07:19:58;5.75;;;4.00;;
28828;SDS011;15966;51.540;11.870;2023-05-10T07:22:25;10.13;;;4.40;;
28828;SDS011;15966;51.540;11.870;2023-05-10T07:24:51;4.95;;;4.35;;
28828;SDS011;15966;51.540;11.870;2023-05-10T07:27:17;8.02;;;4.88;;
28828;SDS011;15966;51.540;11.870;2023-05-10T07:29:43;6.47;;;4.60;;
28828;SDS011;15966;51.540;11.870;2023-05-10T07:32:09;4.45;;;3.88;;
28828;SDS011;15966;51.540;11.870;2023-05-10T07:34:35;8.45;;;4.57;;
28828;SDS011;15966;51.540;11.870;2023-05-10T07:37:01;6.65;;;4.50;;
28828;SDS011;15966;51.540;11.870;2023-05-10T07:39:27;4.82;;;4.40;;
28828;SDS011;15966;51.540;11.870;2023-05-10T07:41:54;6.75;;;4.88;;
28828;SDS011;15966;51.540;11.870;2023-05-10T07:44:20;7.55;;;4.80;;
28828;SDS011;15966;51.540;11.870;2023-05-10T07:46:46;6.85;;;4.70;;
28828;SDS011;15966;51.540;11.870;2023-05-10T07:49:13;7.63;;;5.17;;
28828;SDS011;15966;51.540;11.870;2023-05-10T07:51:39;7.65;;;5.25;;
28828;SDS011;15966;51.540;11.870;2023-05-10T07:54:05;10.10;;;5.20;;
28828;SDS011;15966;51.540;11.870;2023-05-10T07:56:32;12.48;;;6.10;;
28828;SDS011;15966;51.540;11.870;2023-05-10T07:58:59;8.02;;;5.18;;
28828;SDS011;15966;51.540;11.870;2023-05-10T08:01:25;7.40;;;5.20;;
28828;SDS011;15966;51.540;11.870;2023-05-10T08:03:52;6.00;;;5.22;;
28828;SDS011;15966;51.540;11.870;2023-05-10T08:06:18;9.70;;;5.80;;
28828;SDS011;15966;51.540;11.870;2023-05-10T08:08:48;5.78;;;5.03;;
28828;SDS011;15966;51.540;11.870;2023-05-10T08:11:19;5.60;;;5.07;;
28828;SDS011;15966;51.540;11.870;2023-05-10T08:13:45;6.90;;;5.50;;
28828;SDS011;15966;51.540;11.870;2023-05-10T08:16:12;11.18;;;6.97;;
28828;SDS011;15966;51.540;11.870;2023-05-10T08:18:38;7.65;;;6.10;;
28828;SDS011;15966;51.540;11.870;2023-05-10T08:21:04;5.95;;;5.45;;
28828;SDS011;15966;51.540;11.870;2023-05-10T08:23:30;7.00;;;6.30;;
28828;SDS011;15966;51.540;11.870;2023-05-10T08:25:57;9.27;;;6.93;;
28828;SDS011;15966;51.540;11.870;2023-05-10T08:28:23;7.70;;;6.75;;
28828;SDS011;15966;51.540;11.870;2023-05-10T08:30:49;6.93;;;6.20;;
28828;SDS011;15966;51.540;11.870;2023-05-10T08:33:17;9.43;;;6.63;;
28828;SDS011;15966;51.540;11.870;2023-05-10T08:35:43;7.35;;;6.65;;
28828;SDS011;15966;51.540;11.870;2023-05-10T08:38:09;8.27;;;6.22;;
28828;SDS011;15966;51.540;11.870;2023-05-10T08:40:36;6.57;;;5.97;;
28828;SDS011;15966;51.540;11.870;2023-05-10T08:45:32;9.80;;;6.97;;
28828;SDS011;15966;51.540;11.870;2023-05-10T08:48:02;7.20;;;6.50;;
28828;SDS011;15966;51.540;11.870;2023-05-10T08:50:31;7.35;;;6.50;;
28828;SDS011;15966;51.540;11.870;2023-05-10T08:55:25;6.80;;;6.10;;
28828;SDS011;15966;51.540;11.870;2023-05-10T08:57:51;9.88;;;7.63;;
28828;SDS011;15966;51.540;11.870;2023-05-10T09:00:18;7.45;;;6.63;;
28828;SDS011;15966;51.540;11.870;2023-05-10T09:02:44;7.68;;;6.88;;
28828;SDS011;15966;51.540;11.870;2023-05-10T09:05:11;8.13;;;7.20;;
28828;SDS011;15966;51.540;11.870;2023-05-10T09:07:37;8.18;;;7.38;;
28828;SDS011;15966;51.540;11.870;2023-05-10T09:10:04;7.57;;;6.88;;
28828;SDS011;15966;51.540;11.870;2023-05-10T09:12:30;12.27;;;6.95;;
28828;SDS011;15966;51.540;11.870;2023-05-10T09:14:57;7.97;;;6.07;;
28828;SDS011;15966;51.540;11.870;2023-05-10T09:17:25;6.72;;;6.07;;
28828;SDS011;15966;51.540;11.870;2023-05-10T09:20:01;6.78;;;6.15;;
28828;SDS011;15966;51.540;11.870;2023-05-10T09:22:29;5.90;;;5.40;;
28828;SDS011;15966;51.540;11.870;2023-05-10T09:25:09;6.57;;;5.38;;
28828;SDS011;15966;51.540;11.870;2023-05-10T09:27:36;6.82;;;5.78;;
28828;SDS011;15966;51.540;11.870;2023-05-10T09:30:03;7.97;;;4.55;;
28828;SDS011;15966;51.540;11.870;2023-05-10T09:32:37;6.38;;;5.00;;
28828;SDS011;15966;51.540;11.870;2023-05-10T09:35:10;7.10;;;5.10;;
28828;SDS011;15966;51.540;11.870;2023-05-10T09:37:46;4.95;;;4.45;;
28828;SDS011;15966;51.540;11.870;2023-05-10T09:42:51;4.78;;;4.22;;
28828;SDS011;15966;51.540;11.870;2023-05-10T09:45:25;5.13;;;4.10;;
28828;SDS011;15966;51.540;11.870;2023-05-10T09:47:52;3.95;;;3.65;;
28828;SDS011;15966;51.540;11.870;2023-05-10T09:50:19;3.90;;;3.45;;
28828;SDS011;15966;51.540;11.870;2023-05-10T09:52:46;4.28;;;3.35;;
28828;SDS011;15966;51.540;11.870;2023-05-10T09:55:26;8.70;;;3.97;;
28828;SDS011;15966;51.540;11.870;2023-05-10T09:58:04;3.83;;;3.10;;
28828;SDS011;15966;51.540;11.870;2023-05-10T10:00:35;5.00;;;3.83;;
28828;SDS011;15966;51.540;11.870;2023-05-10T10:05:29;2.90;;;2.60;;
28828;SDS011;15966;51.540;11.870;2023-05-10T10:07:59;3.33;;;3.00;;
28828;SDS011;15966;51.540;11.870;2023-05-10T10:10:27;3.13;;;2.83;;
28828;SDS011;15966;51.540;11.870;2023-05-10T10:12:54;3.53;;;2.05;;
28828;SDS011;15966;51.540;11.870;2023-05-10T10:15:20;2.53;;;2.25;;
28828;SDS011;15966;51.540;11.870;2023-05-10T10:17:48;2.67;;;2.47;;
28828;SDS011;15966;51.540;11.870;2023-05-10T10:20:14;2.40;;;2.20;;
28828;SDS011;15966;51.540;11.870;2023-05-10T10:22:41;2.58;;;2.38;;
28828;SDS011;15966;51.540;11.870;2023-05-10T10:25:14;3.03;;;2.75;;
28828;SDS011;15966;51.540;11.870;2023-05-10T10:27:43;2.58;;;2.38;;
28828;SDS011;15966;51.540;11.870;2023-05-10T10:33:10;2.70;;;2.25;;
28828;SDS011;15966;51.540;11.870;2023-05-10T10:35:54;6.35;;;2.72;;
28828;SDS011;15966;51.540;11.870;2023-05-10T10:38:23;2.58;;;2.35;;
28828;SDS011;15966;51.540;11.870;2023-05-10T10:40:54;2.72;;;2.53;;
28828;SDS011;15966;51.540;11.870;2023-05-10T10:43:27;2.65;;;2.45;;
28828;SDS011;15966;51.540;11.870;2023-05-10T10:46:10;3.08;;;2.83;;
28828;SDS011;15966;51.540;11.870;2023-05-10T10:48:38;3.17;;;2.90;;
28828;SDS011;15966;51.540;11.870;2023-05-10T10:51:04;3.22;;;2.92;;
28828;SDS011;15966;51.540;11.870;2023-05-10T10:53:31;3.20;;;2.90;;
28828;SDS011;15966;51.540;11.870;2023-05-10T10:56:07;2.63;;;2.38;;
28828;SDS011;15966;51.540;11.870;2023-05-10T10:58:35;2.33;;;2.13;;
28828;SDS011;15966;51.540;11.870;2023-05-10T11:03:35;3.90;;;2.85;;
28828;SDS011;15966;51.540;11.870;2023-05-10T11:06:01;6.88;;;2.45;;
28828;SDS011;15966;51.540;11.870;2023-05-10T11:08:31;3.08;;;2.78;;
28828;SDS011;15966;51.540;11.870;2023-05-10T11:13:32;3.03;;;2.72;;
28828;SDS011;15966;51.540;11.870;2023-05-10T11:16:09;3.22;;;2.92;;
28828;SDS011;15966;51.540;11.870;2023-05-10T11:18:36;3.10;;;2.85;;
28828;SDS011;15966;51.540;11.870;2023-05-10T11:21:03;3.33;;;3.03;;
28828;SDS011;15966;51.540;11.870;2023-05-10T11:23:33;2.97;;;2.65;;
28828;SDS011;15966;51.540;11.870;2023-05-10T11:26:13;2.80;;;2.60;;
28828;SDS011;15966;51.540;11.870;2023-05-10T11:28:47;2.42;;;2.22;;
28828;SDS011;15966;51.540;11.870;2023-05-10T11:31:14;2.67;;;2.47;;
28828;SDS011;15966;51.540;11.870;2023-05-10T11:33:45;2.83;;;2.63;;
28828;SDS011;15966;51.540;11.870;2023-05-10T11:36:18;2.80;;;2.60;;
28828;SDS011;15966;51.540;11.870;2023-05-10T11:38:56;2.65;;;2.45;;
28828;SDS011;15966;51.540;11.870;2023-05-10T11:41:22;3.15;;;2.90;;
28828;SDS011;15966;51.540;11.870;2023-05-10T11:43:49;3.05;;;2.85;;
28828;SDS011;15966;51.540;11.870;2023-05-10T11:46:18;2.10;;;1.90;;
28828;SDS011;15966;51.540;11.870;2023-05-10T11:48:45;2.97;;;2.65;;
28828;SDS011;15966;51.540;11.870;2023-05-10T11:51:15;2.25;;;2.08;;
28828;SDS011;15966;51.540;11.870;2023-05-10T11:53:44;3.58;;;2.28;;
28828;SDS011;15966;51.540;11.870;2023-05-10T11:56:10;2.88;;;2.67;;
28828;SDS011;15966;51.540;11.870;2023-05-10T11:58:38;3.35;;;2.97;;
28828;SDS011;15966;51.540;11.870;2023-05-10T12:03:30;2.10;;;2.00;;
28828;SDS011;15966;51.540;11.870;2023-05-10T12:05:57;1.30;;;1.20;;
28828;SDS011;15966;51.540;11.870;2023-05-10T12:08:25;1.27;;;1.17;;
28828;SDS011;15966;51.540;11.870;2023-05-10T12:10:52;2.08;;;1.63;;
28828;SDS011;15966;51.540;11.870;2023-05-10T12:13:28;2.22;;;1.73;;
28828;SDS011;15966;51.540;11.870;2023-05-10T12:15:57;1.85;;;1.70;;
28828;SDS011;15966;51.540;11.870;2023-05-10T12:18:23;1.63;;;1.52;;
28828;SDS011;15966;51.540;11.870;2023-05-10T12:20:51;2.72;;;1.50;;
28828;SDS011;15966;51.540;11.870;2023-05-10T12:23:18;1.52;;;1.42;;
28828;SDS011;15966;51.540;11.870;2023-05-10T12:25:45;2.77;;;2.40;;
28828;SDS011;15966;51.540;11.870;2023-05-10T12:28:12;2.20;;;2.05;;
28828;SDS011;15966;51.540;11.870;2023-05-10T12:30:38;2.42;;;2.22;;
28828;SDS011;15966;51.540;11.870;2023-05-10T12:33:08;2.72;;;2.10;;
28828;SDS011;15966;51.540;11.870;2023-05-10T12:35:45;2.70;;;2.50;;
28828;SDS011;15966;51.540;11.870;2023-05-10T12:38:32;2.25;;;2.05;;
28828;SDS011;15966;51.540;11.870;2023-05-10T12:41:20;2.33;;;2.13;;
28828;SDS011;15966;51.540;11.870;2023-05-10T12:43:46;2.55;;;2.35;;
28828;SDS011;15966;51.540;11.870;2023-05-10T12:46:13;2.38;;;2.17;;
28828;SDS011;15966;51.540;11.870;2023-05-10T12:48:41;2.20;;;2.00;;
28828;SDS011;15966;51.540;11.870;2023-05-10T12:51:08;2.13;;;1.95;;
28828;SDS011;15966;51.540;11.870;2023-05-10T12:53:37;2.63;;;2.42;;
28828;SDS011;15966;51.540;11.870;2023-05-10T12:56:06;2.35;;;2.15;;
28828;SDS011;15966;51.540;11.870;2023-05-10T12:58:32;4.65;;;2.67;;
28828;SDS011;15966;51.540;11.870;2023-05-10T13:00:59;2.85;;;2.65;;
28828;SDS011;15966;51.540;11.870;2023-05-10T13:03:25;3.38;;;2.00;;
28828;SDS011;15966;51.540;11.870;2023-05-10T13:05:51;2.47;;;2.28;;
28828;SDS011;15966;51.540;11.870;2023-05-10T13:08:17;3.42;;;2.72;;
28828;SDS011;15966;51.540;11.870;2023-05-10T13:10:43;2.58;;;2.20;;
28828;SDS011;15966;51.540;11.870;2023-05-10T13:13:09;1.63;;;1.52;;
28828;SDS011;15966;51.540;11.870;2023-05-10T13:15:35;1.85;;;1.75;;
28828;SDS011;15966;51.540;11.870;2023-05-10T13:18:02;3.03;;;1.80;;
28828;SDS011;15966;51.540;11.870;2023-05-10T13:20:28;1.80;;;1.67;;
28828;SDS011;15966;51.540;11.870;2023-05-10T13:22:54;1.88;;;1.77;;
28828;SDS011;15966;51.540;11.870;2023-05-10T13:25:20;2.25;;;2.10;;
28828;SDS011;15966;51.540;11.870;2023-05-10T13:27:46;1.52;;;1.42;;
28828;SDS011;15966;51.540;11.870;2023-05-10T13:30:12;3.08;;;2.50;;
28828;SDS011;15966;51.540;11.870;2023-05-10T13:32:38;2.22;;;2.13;;
28828;SDS011;15966;51.540;11.870;2023-05-10T13:35:04;3.03;;;1.75;;
28828;SDS011;15966;51.540;11.870;2023-05-10T13:37:31;1.55;;;1.30;;
28828;SDS011;15966;51.540;11.870;2023-05-10T13:40:00;1.98;;;1.83;;
28828;SDS011;15966;51.540;11.870;2023-05-10T13:42:26;1.10;;;1.00;;
28828;SDS011;15966;51.540;11.870;2023-05-10T13:44:53;1.60;;;1.50;;
28828;SDS011;15966;51.540;11.870;2023-05-10T13:47:19;2.03;;;1.92;;
28828;SDS011;15966;51.540;11.870;2023-05-10T13:49:46;1.98;;;1.42;;
28828;SDS011;15966;51.540;11.870;2023-05-10T13:52:12;1.02;;;1.00;;
28828;SDS011;15966;51.540;11.870;2023-05-10T13:54:38;1.33;;;1.23;;
28828;SDS011;15966;51.540;11.870;2023-05-10T13:57:05;1.70;;;1.60;;
28828;SDS011;15966;51.540;11.870;2023-05-10T13:59:31;2.22;;;1.33;;
28828;SDS011;15966;51.540;11.870;2023-05-10T14:02:00;1.33;;;1.23;;
28828;SDS011;15966;51.540;11.870;2023-05-10T14:04:27;2.33;;;1.60;;
28828;SDS011;15966;51.540;11.870;2023-05-10T14:06:54;1.20;;;1.10;;
28828;SDS011;15966;51.540;11.870;2023-05-10T14:09:20;1.33;;;1.20;;
28828;SDS011;15966;51.540;11.870;2023-05-10T14:11:46;1.77;;;1.30;;
28828;SDS011;15966;51.540;11.870;2023-05-10T14:14:12;2.47;;;1.35;;
28828;SDS011;15966;51.540;11.870;2023-05-10T14:16:41;1.30;;;1.20;;
28828;SDS011;15966;51.540;11.870;2023-05-10T14:19:08;1.70;;;1.42;;
28828;SDS011;15966;51.540;11.870;2023-05-10T14:21:34;2.70;;;1.35;;
28828;SDS011;15966;51.540;11.870;2023-05-10T14:24:00;2.40;;;2.20;;
28828;SDS011;15966;51.540;11.870;2023-05-10T14:26:26;2.88;;;2.67;;
28828;SDS011;15966;51.540;11.870;2023-05-10T14:28:53;2.95;;;2.72;;
28828;SDS011;15966;51.540;11.870;2023-05-10T14:31:19;3.47;;;3.17;;
28828;SDS011;15966;51.540;11.870;2023-05-10T14:33:45;3.05;;;2.78;;
28828;SDS011;15966;51.540;11.870;2023-05-10T14:36:12;2.47;;;2.28;;
28828;SDS011;15966;51.540;11.870;2023-05-10T14:38:38;2.85;;;2.65;;
28828;SDS011;15966;51.540;11.870;2023-05-10T14:41:05;3.15;;;2.85;;
28828;SDS011;15966;51.540;11.870;2023-05-10T14:43:31;3.17;;;2.78;;
28828;SDS011;15966;51.540;11.870;2023-05-10T14:45:57;6.07;;;3.15;;
28828;SDS011;15966;51.540;11.870;2023-05-10T14:48:23;3.08;;;2.78;;
28828;SDS011;15966;51.540;11.870;2023-05-10T14:50:49;4.75;;;2.97;;
28828;SDS011;15966;51.540;11.870;2023-05-10T14:53:17;3.47;;;3.17;;
28828;SDS011;15966;51.540;11.870;2023-05-10T14:55:43;3.90;;;3.50;;
28828;SDS011;15966;51.540;11.870;2023-05-10T14:58:09;2.40;;;2.20;;
28828;SDS011;15966;51.540;11.870;2023-05-10T15:00:35;3.03;;;2.42;;
28828;SDS011;15966;51.540;11.870;2023-05-10T15:03:01;2.60;;;2.40;;
28828;SDS011;15966;51.540;11.870;2023-05-10T15:05:28;3.35;;;2.70;;
28828;SDS011;15966;51.540;11.870;2023-05-10T15:07:54;2.70;;;2.50;;
28828;SDS011;15966;51.540;11.870;2023-05-10T15:10:20;2.60;;;2.40;;
28828;SDS011;15966;51.540;11.870;2023-05-10T15:12:47;2.42;;;2.25;;
28828;SDS011;15966;51.540;11.870;2023-05-10T15:15:13;3.53;;;3.22;;
28828;SDS011;15966;51.540;11.870;2023-05-10T15:17:39;3.07;;;2.77;;